createdAt,value
2023-03-13T08:36:34.710Z,101170.03
2023-03-13T08:39:06.720Z,101165.28
2023-03-13T08:41:36.498Z,101166.84
2023-03-13T08:44:04.808Z,101162.88
2023-03-13T08:46:33.694Z,101155.13
2023-03-13T08:49:00.265Z,101138.72
2023-03-13T08:51:29.137Z,101148.66
2023-03-13T08:53:56.474Z,101150.63
2023-03-13T08:56:28.539Z,101157.34
2023-03-13T08:58:57.407Z,101158.75
2023-03-13T09:01:26.859Z,101148.16
2023-03-13T09:03:53.750Z,101152.72
2023-03-13T09:06:20.250Z,101157.81
2023-03-13T09:08:47.179Z,101170.81
2023-03-13T09:11:19.571Z,101179.28
2023-03-13T09:13:50.146Z,101177.94
2023-03-13T09:16:25.165Z,101177.88
2023-03-13T09:18:52.533Z,101169.63
2023-03-13T09:21:25.378Z,101172.41
2023-03-13T09:23:52.203Z,101172.28
2023-03-13T09:26:22.977Z,101173.13
2023-03-13T09:28:50.672Z,101182.50
2023-03-13T09:31:20.654Z,101185.06
2023-03-13T09:33:48.728Z,101184.13
2023-03-13T09:36:19.242Z,101195.28
2023-03-13T09:38:48.005Z,101187.13
2023-03-13T09:41:17.792Z,101178.59
2023-03-13T09:43:47.227Z,101174.78
2023-03-13T09:46:23.342Z,101170.66
2023-03-13T09:48:56.118Z,101169.41
2023-03-13T09:51:36.904Z,101167.34
2023-03-13T09:54:14.691Z,101179.75
2023-03-13T09:56:47.816Z,101176.69
2023-03-13T09:59:20.355Z,101176.25
2023-03-13T10:01:49.389Z,101167.69
2023-03-13T10:04:19.261Z,101162.22
2023-03-13T10:06:48.670Z,101158.31
2023-03-13T10:09:25.497Z,101159.00
2023-03-13T10:12:00.205Z,101149.59
2023-03-13T10:14:31.981Z,101142.69
2023-03-13T10:16:58.422Z,101131.06
2023-03-13T10:19:34.639Z,101136.72
2023-03-13T10:22:04.152Z,101129.28
2023-03-13T10:24:41.224Z,101134.97
2023-03-13T10:27:15.916Z,101130.31
2023-03-13T10:29:42.416Z,101122.81
2023-03-13T10:32:13.180Z,101124.63
2023-03-13T10:34:59.205Z,101126.34
2023-03-13T10:37:27.132Z,101119.38
2023-03-13T10:39:54.057Z,101119.50
2023-03-13T10:42:35.730Z,101124.69
2023-03-13T10:45:05.406Z,101118.75
2023-03-13T10:47:35.797Z,101105.69
2023-03-13T10:50:04.158Z,101107.41
2023-03-13T10:52:32.242Z,101101.72
2023-03-13T10:55:06.868Z,101108.44
2023-03-13T10:57:36.793Z,101105.44
2023-03-13T11:00:44.164Z,101097.16
2023-03-13T11:03:22.516Z,101089.28
2023-03-13T11:06:01.250Z,101092.69
2023-03-13T11:08:35.497Z,101079.16
2023-03-13T11:11:20.663Z,101076.72
2023-03-13T11:13:47.378Z,101073.13
2023-03-13T11:16:18.107Z,101080.94
2023-03-13T11:18:59.631Z,101078.81
2023-03-13T11:21:43.811Z,101078.06
2023-03-13T11:24:46.269Z,101085.28
2023-03-13T11:27:35.575Z,101078.00
2023-03-13T11:30:32.956Z,101069.06
2023-03-13T11:33:04.255Z,101061.44
2023-03-13T11:36:28.736Z,101066.78
2023-03-13T11:39:26.280Z,101052.97
2023-03-13T11:42:27.113Z,101042.44
2023-03-13T11:44:59.142Z,101055.03
2023-03-13T11:47:37.627Z,101046.78
2023-03-13T11:50:25.266Z,101040.22
2023-03-13T11:53:22.808Z,101026.38
2023-03-13T12:00:06.645Z,101021.59
2023-03-13T12:02:52.934Z,101016.44
2023-03-13T12:05:21.648Z,101016.22
2023-03-13T12:07:55.352Z,101011.81
2023-03-13T12:10:31.101Z,101014.81
2023-03-13T12:13:01.620Z,101002.03
2023-03-13T12:15:34.330Z,100995.81
2023-03-13T12:18:09.802Z,100982.72
2023-03-13T12:20:53.403Z,100983.31
2023-03-13T12:23:24.333Z,100974.66
2023-03-13T12:26:00.327Z,100969.81
2023-03-13T12:28:56.069Z,100963.28
2023-03-13T12:31:26.764Z,100963.16
2023-03-13T12:34:06.337Z,100963.72
2023-03-13T12:36:51.952Z,100952.09
2023-03-13T12:39:35.951Z,100950.47
2023-03-13T12:42:21.966Z,100946.75
2023-03-13T12:44:48.533Z,100937.06
2023-03-13T12:47:47.980Z,100936.41
2023-03-13T12:50:36.745Z,100927.38
2023-03-13T12:53:17.143Z,100911.69
2023-03-13T12:56:03.183Z,100915.22
2023-03-13T12:58:41.210Z,100909.91
2023-03-13T13:01:13.665Z,100911.00
2023-03-13T13:04:18.335Z,100902.22
2023-03-13T13:06:54.373Z,100889.84
2023-03-13T13:09:30.881Z,100891.66
2023-03-13T13:12:20.303Z,100884.13
2023-03-13T13:14:49.979Z,100890.19
2023-03-13T13:17:26.779Z,100888.25
2023-03-13T13:19:53.572Z,100877.97
2023-03-13T13:22:38.817Z,100874.81
2023-03-13T13:25:15.193Z,100878.19
2023-03-13T13:27:41.569Z,100877.78
2023-03-13T13:30:23.828Z,100868.53
2023-03-13T13:33:17.013Z,100869.25
2023-03-13T13:35:43.959Z,100862.13
2023-03-13T13:38:19.970Z,100872.59
2023-03-13T13:41:08.168Z,100876.91
2023-03-13T13:43:42.595Z,100861.69
2023-03-13T13:46:21.514Z,100857.03
2023-03-13T13:49:06.694Z,100850.38
2023-03-13T13:52:03.467Z,100843.63
2023-03-13T13:54:42.295Z,100848.44
2023-03-13T13:57:18.922Z,100829.72
2023-03-13T13:59:59.375Z,100830.81
2023-03-13T14:02:37.026Z,100831.38
2023-03-13T14:05:06.826Z,100830.25
2023-03-13T14:07:50.196Z,100823.56
2023-03-13T14:10:19.092Z,100807.34
2023-03-13T14:12:57.187Z,100812.59
2023-03-13T14:15:28.298Z,100817.88
2023-03-13T14:18:00.288Z,100816.31
2023-03-13T14:20:38.556Z,100814.72
2023-03-13T14:23:10.443Z,100812.34
2023-03-13T14:25:50.095Z,100808.03
2023-03-13T14:28:20.274Z,100805.06
2023-03-13T14:30:48.689Z,100805.41
2023-03-13T14:33:15.628Z,100797.28
2023-03-13T14:35:42.906Z,100793.25
2023-03-13T14:38:23.698Z,100787.59
2023-03-13T14:40:51.823Z,100780.63
2023-03-13T14:43:23.506Z,100785.03
2023-03-13T14:45:51.405Z,100785.75
2023-03-13T14:48:32.422Z,100790.44
2023-03-13T14:51:15.314Z,100787.94
2023-03-13T14:54:00.504Z,100779.78
2023-03-13T14:56:45.259Z,100787.16
2023-03-13T14:59:26.542Z,100784.63
2023-03-13T15:02:04.418Z,100791.16
2023-03-13T15:05:14.116Z,100785.25
2023-03-13T15:07:47.319Z,100783.81
2023-03-13T15:10:19.673Z,100772.88
2023-03-13T15:12:46.198Z,100775.25
2023-03-13T15:15:12.660Z,100772.03
2023-03-13T15:17:39.202Z,100764.50
2023-03-13T15:20:09.881Z,100755.59
2023-03-13T15:22:39.470Z,100758.19
2023-03-13T15:25:19.524Z,100758.53
2023-03-13T15:27:46.617Z,100755.53
2023-03-13T15:30:23.439Z,100761.72
2023-03-13T15:32:50.461Z,100752.94
2023-03-13T15:35:28.627Z,100752.00
2023-03-13T15:37:56.676Z,100754.06
2023-03-13T15:40:24.478Z,100750.25
2023-03-13T15:42:51.999Z,100747.22
2023-03-13T15:45:18.597Z,100749.47
2023-03-13T15:47:45.534Z,100742.41
2023-03-13T15:50:18.017Z,100739.00
2023-03-13T15:52:44.956Z,100743.50
2023-03-13T15:55:12.255Z,100747.22
2023-03-13T15:57:44.171Z,100728.88
2023-03-13T16:00:19.059Z,100732.03
2023-03-13T16:02:45.750Z,100740.16
2023-03-13T16:05:12.203Z,100734.66
2023-03-13T16:07:38.641Z,100724.16
2023-03-13T16:10:14.593Z,100729.13
2023-03-13T16:12:41.156Z,100726.16
2023-03-13T16:15:08.382Z,100717.38
2023-03-13T16:17:34.897Z,100716.25
2023-03-13T16:20:01.427Z,100709.03
2023-03-13T16:22:28.010Z,100708.06
2023-03-13T16:24:55.601Z,100700.84
2023-03-13T16:27:22.695Z,100698.00
2023-03-13T16:29:49.388Z,100711.97
2023-03-13T16:32:18.714Z,100707.41
2023-03-13T16:34:45.258Z,100697.59
2023-03-13T16:37:14.486Z,100697.25
2023-03-13T16:39:41.664Z,100695.34
2023-03-13T16:42:09.468Z,100694.53
2023-03-13T16:44:36.599Z,100691.97
2023-03-13T16:47:06.734Z,100695.34
2023-03-13T16:49:33.484Z,100693.31
2023-03-13T16:52:00.717Z,100696.69
2023-03-13T16:54:27.372Z,100694.88
2023-03-13T16:56:53.978Z,100699.03
2023-03-13T16:59:21.550Z,100683.31
2023-03-13T17:01:48.153Z,100684.97
2023-03-13T17:04:15.145Z,100685.66
2023-03-13T17:06:44.575Z,100679.38
2023-03-13T17:09:16.223Z,100675.75
2023-03-13T17:11:43.078Z,100682.72
2023-03-13T17:14:10.262Z,100672.28
2023-03-13T17:16:41.716Z,100672.03
2023-03-13T17:19:13.536Z,100668.69
2023-03-13T17:21:40.056Z,100670.34
2023-03-13T17:24:07.724Z,100660.66
2023-03-13T17:26:37.414Z,100658.19
2023-03-13T17:29:05.985Z,100657.97
2023-03-13T17:31:37.662Z,100671.69
2023-03-13T17:34:05.719Z,100671.59
2023-03-13T17:36:32.444Z,100665.63
2023-03-13T17:39:01.577Z,100661.34
2023-03-13T17:41:30.529Z,100658.66
2023-03-13T17:43:57.168Z,100661.47
2023-03-13T17:46:35.821Z,100656.06
2023-03-13T17:49:02.766Z,100656.63
2023-03-13T17:51:32.274Z,100658.88
2023-03-13T17:53:59.597Z,100660.44
2023-03-13T17:56:32.095Z,100657.94
2023-03-13T17:59:00.614Z,100649.41
2023-03-13T18:01:30.471Z,100647.84
2023-03-13T18:03:58.026Z,100651.47
2023-03-13T18:06:26.020Z,100649.53
2023-03-13T18:08:57.694Z,100641.53
2023-03-13T18:11:25.472Z,100645.13
2023-03-13T18:13:52.387Z,100634.66
2023-03-13T18:16:43.239Z,100638.06
2023-03-13T18:19:22.624Z,100631.09
2023-03-13T18:21:51.721Z,100631.19
2023-03-13T18:24:18.327Z,100626.00
2023-03-13T18:26:46.373Z,100624.31
2023-03-13T18:29:26.175Z,100614.66
2023-03-13T18:31:55.293Z,100617.81
2023-03-13T18:34:23.527Z,100614.22
2023-03-13T18:36:50.148Z,100602.94
2023-03-13T18:39:17.546Z,100596.78
2023-03-13T18:41:48.886Z,100592.50
2023-03-13T18:44:16.300Z,100592.19
2023-03-13T18:46:43.475Z,100575.97
2023-03-13T18:49:17.120Z,100582.47
2023-03-13T18:51:44.280Z,100584.97
2023-03-13T18:54:10.775Z,100581.03
2023-03-13T18:56:37.638Z,100566.41
2023-03-13T18:59:04.192Z,100566.41
2023-03-13T19:01:31.880Z,100568.78
2023-03-13T19:04:00.125Z,100557.53
2023-03-13T19:06:33.521Z,100562.38
2023-03-13T19:09:37.811Z,100563.06
2023-03-13T19:11:57.984Z,100551.22
2023-03-13T19:14:24.403Z,100550.13
2023-03-13T19:16:53.517Z,100552.03
2023-03-13T19:19:22.150Z,100550.47
2023-03-13T19:21:49.669Z,100561.34
2023-03-13T19:24:16.709Z,100568.09
2023-03-13T19:26:46.802Z,100567.22
2023-03-13T19:29:19.267Z,100571.78
2023-03-13T19:31:45.843Z,100580.34
2023-03-13T19:34:12.567Z,100574.97
2023-03-13T19:36:44.854Z,100573.06
2023-03-13T19:39:13.111Z,100570.47
2023-03-13T19:41:39.586Z,100571.22
2023-03-13T19:44:06.038Z,100564.81
2023-03-13T19:46:33.351Z,100561.22
2023-03-13T19:49:02.074Z,100550.66
2023-03-13T19:51:29.617Z,100540.03
2023-03-13T19:53:57.113Z,100535.19
2023-03-13T19:56:31.584Z,100536.59
2023-03-13T19:59:03.900Z,100534.03
2023-03-13T20:01:31.729Z,100529.00
2023-03-13T20:03:58.600Z,100520.22
2023-03-13T20:06:31.571Z,100513.91
2023-03-13T20:09:00.792Z,100515.72
2023-03-13T20:11:28.279Z,100521.78
2023-03-13T20:13:55.285Z,100513.00
2023-03-13T20:16:22.851Z,100508.75
2023-03-13T20:18:49.721Z,100509.75
2023-03-13T20:21:17.416Z,100504.72
2023-03-13T20:23:47.253Z,100511.22
2023-03-13T20:26:15.815Z,100515.91
2023-03-13T20:28:45.958Z,100530.94
2023-03-13T20:31:13.376Z,100537.66
2023-03-13T20:33:43.057Z,100544.50
2023-03-13T20:36:12.957Z,100551.16
2023-03-13T20:38:40.734Z,100538.66
2023-03-13T20:41:08.132Z,100533.34
2023-03-13T20:43:36.154Z,100530.00
2023-03-13T20:46:03.701Z,100527.97
2023-03-13T20:48:30.425Z,100533.25
2023-03-13T20:50:58.684Z,100523.81
2023-03-13T20:53:26.702Z,100517.63
2023-03-13T20:55:54.439Z,100516.97
2023-03-13T20:58:20.949Z,100511.94
2023-03-13T21:00:48.549Z,100492.03
2023-03-13T21:03:15.325Z,100488.34
2023-03-13T21:05:42.131Z,100475.97
2023-03-13T21:08:09.634Z,100473.06
2023-03-13T21:10:37.141Z,100468.44
2023-03-13T21:13:04.206Z,100467.88
2023-03-13T21:15:30.810Z,100464.81
2023-03-13T21:17:57.402Z,100460.25
2023-03-13T21:20:24.708Z,100467.28
2023-03-13T21:22:51.944Z,100459.81
2023-03-13T21:25:19.292Z,100452.88
2023-03-13T21:27:45.817Z,100450.63
2023-03-13T21:30:17.357Z,100449.97
2023-03-13T21:32:45.244Z,100444.91
2023-03-13T21:35:12.628Z,100432.63
2023-03-13T21:37:40.118Z,100438.72
2023-03-13T21:40:08.784Z,100424.13
2023-03-13T21:42:36.206Z,100410.34
2023-03-13T21:45:04.121Z,100405.63
2023-03-13T21:47:31.618Z,100418.53
2023-03-13T21:50:00.538Z,100409.66
2023-03-13T21:52:27.947Z,100396.78
2023-03-13T21:54:54.428Z,100401.69
2023-03-13T21:57:20.939Z,100398.19
2023-03-13T21:59:47.385Z,100395.41
2023-03-13T22:02:13.947Z,100388.91
2023-03-13T22:04:40.430Z,100376.53
2023-03-13T22:07:07.010Z,100363.75
2023-03-13T22:09:33.543Z,100337.72
2023-03-13T22:11:59.999Z,100336.94
2023-03-13T22:14:27.980Z,100334.34
2023-03-13T22:16:54.801Z,100322.78
2023-03-13T22:19:21.306Z,100307.47
2023-03-13T22:21:47.764Z,100295.25
2023-03-13T22:24:14.271Z,100296.41
2023-03-13T22:26:40.729Z,100273.75
2023-03-13T22:29:07.226Z,100263.84
2023-03-13T22:31:33.717Z,100252.97
2023-03-13T22:34:00.178Z,100252.34
2023-03-13T22:36:26.639Z,100246.97
2023-03-13T22:38:53.073Z,100252.34
2023-03-13T22:41:19.485Z,100254.84
2023-03-13T22:43:46.113Z,100260.88
2023-03-13T22:46:12.952Z,100253.38
2023-03-13T22:48:40.679Z,100255.72
2023-03-13T22:51:09.680Z,100263.22
2023-03-13T22:53:37.880Z,100242.63
2023-03-13T22:56:05.150Z,100246.75
2023-03-13T22:58:34.252Z,100240.81
2023-03-13T23:01:00.789Z,100241.47
2023-03-13T23:03:27.348Z,100225.78
2023-03-13T23:05:53.792Z,100218.06
2023-03-13T23:08:20.295Z,100208.63
2023-03-13T23:10:47.508Z,100207.50
2023-03-13T23:13:14.471Z,100207.03
2023-03-13T23:15:55.226Z,100205.59
2023-03-13T23:18:24.409Z,100190.66
2023-03-13T23:20:51.126Z,100166.22
2023-03-13T23:23:17.700Z,100157.38
2023-03-13T23:25:44.127Z,100159.63
2023-03-13T23:28:10.664Z,100157.03
2023-03-13T23:30:37.786Z,100166.06
2023-03-13T23:33:04.240Z,100161.84
2023-03-13T23:35:30.783Z,100158.88
2023-03-13T23:37:57.212Z,100155.94
2023-03-13T23:40:24.208Z,100144.66
2023-03-13T23:42:51.194Z,100145.31
2023-03-13T23:45:18.959Z,100126.91
2023-03-13T23:47:45.964Z,100122.44
2023-03-13T23:50:14.343Z,100117.59
2023-03-13T23:52:41.650Z,100117.06
2023-03-13T23:55:09.253Z,100104.19
2023-03-13T23:57:38.797Z,100116.84
